createdAt,value
2019-05-16T00:00:32.087Z,10.89
2019-05-16T00:03:32.072Z,10.81
2019-05-16T00:06:32.054Z,10.77
2019-05-16T00:09:31.988Z,10.77
2019-05-16T00:12:31.978Z,10.81
2019-05-16T00:15:31.923Z,10.71
2019-05-16T00:18:31.900Z,10.76
2019-05-16T00:21:31.848Z,10.70
2019-05-16T00:24:31.851Z,10.66
2019-05-16T00:27:31.820Z,10.59
2019-05-16T00:30:31.756Z,10.59
2019-05-16T00:33:31.769Z,10.56
2019-05-16T00:36:31.686Z,10.60
2019-05-16T00:39:31.688Z,10.44
2019-05-16T00:42:31.623Z,10.42
2019-05-16T00:45:31.607Z,10.42
2019-05-16T00:48:31.586Z,10.34
2019-05-16T00:51:31.523Z,10.26
2019-05-16T00:54:31.508Z,10.28
2019-05-16T00:57:31.459Z,10.32
2019-05-16T01:00:31.437Z,10.21
2019-05-16T01:03:31.387Z,10.25
2019-05-16T01:06:31.381Z,10.21
2019-05-16T01:09:31.355Z,10.28
2019-05-16T01:12:31.290Z,10.22
2019-05-16T01:15:31.281Z,10.15
2019-05-16T01:18:31.221Z,10.14
2019-05-16T01:21:31.209Z,10.15
2019-05-16T01:24:31.162Z,10.09
2019-05-16T01:27:31.139Z,10.12
2019-05-16T01:30:31.123Z,10.07
2019-05-16T01:33:31.053Z,10.06
2019-05-16T01:36:36.772Z,10.03
2019-05-16T01:39:31.995Z,10.01
2019-05-16T01:42:30.973Z,10.01
2019-05-16T01:45:30.924Z,10.01
2019-05-16T01:48:30.912Z,10.01
2019-05-16T01:51:30.870Z,10.03
2019-05-16T01:54:30.845Z,10.00
2019-05-16T01:57:30.809Z,9.93
2019-05-16T02:00:37.151Z,9.96
2019-05-16T02:03:31.751Z,9.99
2019-05-16T02:06:30.698Z,9.83
2019-05-16T02:09:30.680Z,9.96
2019-05-16T02:12:30.627Z,9.94
2019-05-16T02:15:30.613Z,9.93
2019-05-16T02:18:30.561Z,9.86
2019-05-16T02:21:30.549Z,9.88
2019-05-16T02:24:30.516Z,9.83
2019-05-16T02:27:30.479Z,9.89
2019-05-16T02:30:31.531Z,9.85
2019-05-16T02:33:31.679Z,9.88
2019-05-16T02:36:31.377Z,9.79
2019-05-16T02:39:30.793Z,9.68
2019-05-16T02:42:31.218Z,9.75
2019-05-16T02:45:32.488Z,9.67
2019-05-16T02:48:31.808Z,9.71
2019-05-16T02:51:31.666Z,9.67
2019-05-16T02:54:31.571Z,9.68
2019-05-16T02:57:31.724Z,9.70
2019-05-16T03:00:30.921Z,9.60
2019-05-16T03:03:31.651Z,9.63
2019-05-16T03:06:32.120Z,9.61
2019-05-16T03:09:30.548Z,9.61
2019-05-16T03:12:31.023Z,9.52
2019-05-16T03:15:31.006Z,9.58
2019-05-16T03:18:31.019Z,9.56
2019-05-16T03:21:30.817Z,9.48
2019-05-16T03:24:30.975Z,9.49
2019-05-16T03:27:30.576Z,9.46
2019-05-16T03:30:35.054Z,9.43
2019-05-16T03:33:35.197Z,9.40
2019-05-16T03:36:34.576Z,9.39
2019-05-16T03:39:31.355Z,9.38
2019-05-16T03:42:31.094Z,9.30
2019-05-16T03:45:31.920Z,9.24
2019-05-16T03:48:31.506Z,9.24
2019-05-16T03:51:30.909Z,9.27
2019-05-16T03:54:31.381Z,9.39
2019-05-16T03:57:30.712Z,9.24
2019-05-16T04:00:31.638Z,9.38
2019-05-16T04:03:32.974Z,9.31
2019-05-16T04:06:31.154Z,9.40
2019-05-16T04:09:31.500Z,9.28
2019-05-16T04:12:30.867Z,9.40
2019-05-16T04:15:31.124Z,9.28
2019-05-16T04:18:31.869Z,9.30
2019-05-16T04:21:32.249Z,9.25
2019-05-16T04:24:31.681Z,9.24
2019-05-16T04:27:30.934Z,9.23
2019-05-16T04:30:31.274Z,9.25
2019-05-16T04:33:30.942Z,9.31
2019-05-16T04:36:29.062Z,9.12
2019-05-16T04:39:31.922Z,9.24
2019-05-16T04:42:31.116Z,9.31
2019-05-16T04:45:31.694Z,9.40
2019-05-16T04:48:31.017Z,9.27
2019-05-16T04:51:30.681Z,9.32
2019-05-16T04:54:30.788Z,9.43
2019-05-16T04:57:31.322Z,9.50
2019-05-16T05:00:31.886Z,9.49
2019-05-16T05:03:31.562Z,9.60
2019-05-16T05:06:31.268Z,9.94
2019-05-16T05:09:31.505Z,9.85
2019-05-16T05:12:31.340Z,10.21
2019-05-16T05:15:30.606Z,10.56
2019-05-16T05:18:30.294Z,10.92
2019-05-16T05:21:31.206Z,11.02
2019-05-16T05:24:30.246Z,11.10
2019-05-16T05:27:30.264Z,11.14
2019-05-16T05:30:30.325Z,11.43
2019-05-16T05:33:30.199Z,11.46
2019-05-16T05:36:30.074Z,11.10
2019-05-16T05:39:30.322Z,11.20
2019-05-16T05:42:30.573Z,10.88
2019-05-16T05:45:30.503Z,10.32
2019-05-16T05:48:30.704Z,10.07
2019-05-16T05:51:30.094Z,10.18
2019-05-16T05:54:30.672Z,10.60
2019-05-16T05:57:30.053Z,10.92
2019-05-16T06:00:30.335Z,10.46
2019-05-16T06:03:32.375Z,10.34
2019-05-16T06:06:30.348Z,10.74
2019-05-16T06:09:30.107Z,10.84
2019-05-16T06:12:30.317Z,10.94
2019-05-16T06:15:27.961Z,10.44
2019-05-16T06:18:30.290Z,10.43
2019-05-16T06:21:33.110Z,10.28
2019-05-16T06:24:30.518Z,10.55
2019-05-16T06:27:30.159Z,10.42
2019-05-16T06:30:30.214Z,10.36
2019-05-16T06:33:30.337Z,10.22
2019-05-16T06:36:27.747Z,10.14
2019-05-16T06:39:39.195Z,10.33
2019-05-16T06:42:29.928Z,10.70
2019-05-16T06:45:27.637Z,10.63
2019-05-16T06:48:30.167Z,10.76
2019-05-16T06:51:27.566Z,10.86
2019-05-16T06:54:29.734Z,11.07
2019-05-16T06:57:30.015Z,11.10
2019-05-16T07:00:29.889Z,11.19
2019-05-16T07:03:27.450Z,10.91
2019-05-16T07:06:48.406Z,11.32
2019-05-16T07:09:30.116Z,11.27
2019-05-16T07:12:27.356Z,11.53
2019-05-16T07:15:27.313Z,11.61
2019-05-16T07:18:27.287Z,11.68
2019-05-16T07:21:27.252Z,12.09
2019-05-16T07:24:27.231Z,12.11
2019-05-16T07:27:27.221Z,12.29
2019-05-16T07:30:27.143Z,12.11
2019-05-16T07:33:27.129Z,11.97
2019-05-16T07:36:27.091Z,11.96
2019-05-16T07:39:27.066Z,12.09
2019-05-16T07:42:27.053Z,11.28
2019-05-16T07:45:27.034Z,11.67
2019-05-16T07:48:26.964Z,11.27
2019-05-16T07:51:26.956Z,11.44
2019-05-16T07:54:26.883Z,11.86
2019-05-16T07:57:26.896Z,11.56
2019-05-16T08:00:45.753Z,12.57
2019-05-16T08:03:30.184Z,11.89
2019-05-16T08:06:26.753Z,11.74
2019-05-16T08:09:26.751Z,11.49
2019-05-16T08:12:27.221Z,11.70
2019-05-16T08:15:26.654Z,12.60
2019-05-16T08:18:26.648Z,11.90
2019-05-16T08:21:27.729Z,12.70
2019-05-16T08:24:26.594Z,12.79
2019-05-16T08:27:26.526Z,13.17
2019-05-16T08:30:26.516Z,13.24
2019-05-16T08:33:26.490Z,12.60
2019-05-16T08:36:26.432Z,12.69
2019-05-16T08:39:26.418Z,12.11
2019-05-16T08:42:26.425Z,12.01
2019-05-16T08:45:26.400Z,12.26
2019-05-16T08:48:26.321Z,12.84
2019-05-16T08:51:26.300Z,12.52
2019-05-16T08:54:26.257Z,12.78
2019-05-16T08:57:27.758Z,13.12
2019-05-16T09:00:27.230Z,12.89
2019-05-16T09:03:26.152Z,12.15
2019-05-16T09:06:26.127Z,12.45
2019-05-16T09:09:41.034Z,12.54
2019-05-16T09:12:27.901Z,11.94
2019-05-16T09:15:27.411Z,11.87
2019-05-16T09:18:28.918Z,11.82
2019-05-16T09:21:27.606Z,11.93
2019-05-16T09:24:27.237Z,12.02
2019-05-16T09:27:27.336Z,11.77
2019-05-16T09:30:27.479Z,11.72
2019-05-16T09:33:26.993Z,11.49
2019-05-16T09:36:28.055Z,11.77
2019-05-16T09:39:27.755Z,11.77
2019-05-16T09:42:32.778Z,11.39
2019-05-16T09:45:27.230Z,11.28
2019-05-16T09:48:28.054Z,11.61
2019-05-16T09:51:27.180Z,11.21
2019-05-16T09:54:27.338Z,11.38
2019-05-16T09:57:27.778Z,11.19
2019-05-16T10:00:26.962Z,11.17
2019-05-16T10:03:27.102Z,11.43
2019-05-16T10:06:27.587Z,11.35
2019-05-16T10:09:40.288Z,11.35
2019-05-16T10:12:26.404Z,11.57
2019-05-16T10:15:26.956Z,11.44
2019-05-16T10:18:27.655Z,11.25
2019-05-16T10:21:27.163Z,11.41
2019-05-16T10:24:26.890Z,11.39
2019-05-16T10:27:26.480Z,11.77
2019-05-16T10:30:26.960Z,11.54
2019-05-16T10:33:27.536Z,11.83
2019-05-16T10:36:27.938Z,11.72
2019-05-16T10:39:26.782Z,11.20
2019-05-16T10:42:28.940Z,11.28
2019-05-16T10:45:27.158Z,11.25
2019-05-16T10:48:26.990Z,11.13
2019-05-16T10:51:26.923Z,11.06
2019-05-16T10:54:27.404Z,11.20
2019-05-16T10:57:29.392Z,11.03
2019-05-16T11:00:57.235Z,11.34
2019-05-16T11:03:27.680Z,11.17
2019-05-16T11:06:28.836Z,10.99
2019-05-16T11:09:24.793Z,11.43
2019-05-16T11:12:43.195Z,11.99
2019-05-16T11:15:27.801Z,12.19
2019-05-16T11:18:26.907Z,12.59
2019-05-16T11:21:26.721Z,12.92
2019-05-16T11:24:28.989Z,12.89
2019-05-16T11:27:24.582Z,12.89
2019-05-16T11:30:24.657Z,12.75
2019-05-16T11:33:24.527Z,12.24
2019-05-16T11:36:26.645Z,12.05
2019-05-16T11:39:24.491Z,11.75
2019-05-16T11:42:24.414Z,12.05
2019-05-16T11:45:24.389Z,11.93
2019-05-16T11:48:25.338Z,12.33
2019-05-16T11:51:26.610Z,12.13
2019-05-16T11:54:26.464Z,12.04
2019-05-16T11:57:24.271Z,11.99
2019-05-16T12:00:24.272Z,11.94
2019-05-16T12:03:24.184Z,11.72
2019-05-16T12:06:26.625Z,11.77
2019-05-16T12:09:24.133Z,11.71
2019-05-16T12:12:24.109Z,11.82
2019-05-16T12:15:24.060Z,11.99
2019-05-16T12:18:26.384Z,11.90
2019-05-16T12:21:24.002Z,11.80
2019-05-16T12:24:33.038Z,11.85
2019-05-16T12:27:31.800Z,11.52
2019-05-16T12:30:24.904Z,11.86
2019-05-16T12:33:23.889Z,11.93
2019-05-16T12:36:26.328Z,11.74
2019-05-16T12:39:26.673Z,11.82
2019-05-16T12:42:23.786Z,11.87
2019-05-16T12:45:23.729Z,11.71
2019-05-16T12:48:23.719Z,12.16
2019-05-16T12:51:23.663Z,12.29
2019-05-16T12:54:23.665Z,12.31
2019-05-16T12:57:27.696Z,11.83
2019-05-16T13:00:24.601Z,11.86
2019-05-16T13:03:23.542Z,11.57
2019-05-16T13:06:23.524Z,11.67
2019-05-16T13:09:23.490Z,12.37
2019-05-16T13:12:23.459Z,13.02
2019-05-16T13:15:23.439Z,12.19
2019-05-16T13:18:23.400Z,12.31
2019-05-16T13:21:23.353Z,11.82
2019-05-16T13:24:23.307Z,11.97
2019-05-16T13:27:23.503Z,11.77
2019-05-16T13:30:23.264Z,11.78
2019-05-16T13:33:23.260Z,11.83
2019-05-16T13:36:23.219Z,11.67
2019-05-16T13:39:23.150Z,11.65
2019-05-16T13:42:23.143Z,11.28
2019-05-16T13:45:23.086Z,11.01
2019-05-16T13:48:23.070Z,10.84
2019-05-16T13:51:23.049Z,10.91
2019-05-16T13:54:22.985Z,10.56
2019-05-16T13:57:22.962Z,10.30
2019-05-16T14:00:22.925Z,10.40
2019-05-16T14:03:22.905Z,10.19
2019-05-16T14:06:22.858Z,10.36
2019-05-16T14:09:22.836Z,10.24
2019-05-16T14:12:22.812Z,10.52
2019-05-16T14:15:22.750Z,10.73
2019-05-16T14:18:22.731Z,10.26
2019-05-16T14:21:22.692Z,9.70
2019-05-16T14:24:22.672Z,9.75
2019-05-16T14:27:22.615Z,10.06
2019-05-16T14:30:22.612Z,9.96
2019-05-16T14:33:22.551Z,10.00
2019-05-16T14:36:22.535Z,9.94
2019-05-16T14:39:22.489Z,10.01
2019-05-16T14:42:22.494Z,10.09
2019-05-16T14:45:22.452Z,9.89
2019-05-16T14:48:22.394Z,10.01
2019-05-16T14:51:22.379Z,9.79
2019-05-16T14:54:22.335Z,9.86
2019-05-16T14:57:22.289Z,9.96
2019-05-16T15:00:22.275Z,9.88
2019-05-16T15:03:22.226Z,10.03
2019-05-16T15:06:22.215Z,10.19
2019-05-16T15:09:22.160Z,9.91
2019-05-16T15:12:22.146Z,9.45
2019-05-16T15:15:24.758Z,9.67
2019-05-16T15:18:23.080Z,9.78
2019-05-16T15:21:22.067Z,9.78
2019-05-16T15:24:21.989Z,10.03
2019-05-16T15:27:21.988Z,10.03
2019-05-16T15:30:21.921Z,10.01
2019-05-16T15:33:21.911Z,10.03
2019-05-16T15:36:21.865Z,9.97
2019-05-16T15:39:21.853Z,10.19
2019-05-16T15:42:27.768Z,10.09
2019-05-16T15:45:38.130Z,9.97
2019-05-16T15:48:22.745Z,9.97
2019-05-16T15:51:21.687Z,9.91
2019-05-16T15:54:21.694Z,9.85
2019-05-16T15:57:21.639Z,9.64
2019-05-16T16:00:21.592Z,9.70
2019-05-16T16:03:21.578Z,9.71
2019-05-16T16:06:21.529Z,9.53
2019-05-16T16:09:21.515Z,9.61
2019-05-16T16:12:21.457Z,9.46
2019-05-16T16:15:21.459Z,9.42
2019-05-16T16:18:22.067Z,9.38
2019-05-16T16:21:21.363Z,9.30
2019-05-16T16:24:21.348Z,9.21
2019-05-16T16:27:21.294Z,9.18
2019-05-16T16:30:21.283Z,9.13
2019-05-16T16:33:26.284Z,9.20
2019-05-16T16:36:22.228Z,9.23
2019-05-16T16:39:21.177Z,9.13
2019-05-16T16:42:21.146Z,9.23
2019-05-16T16:45:21.112Z,9.12
2019-05-16T16:48:21.071Z,9.09
2019-05-16T16:51:21.059Z,9.31
2019-05-16T16:54:21.009Z,9.20
2019-05-16T16:57:21.013Z,9.31
2019-05-16T17:00:20.938Z,9.32
2019-05-16T17:03:20.934Z,9.20
2019-05-16T17:06:20.876Z,9.32
2019-05-16T17:09:20.864Z,9.38
2019-05-16T17:12:20.814Z,9.20
2019-05-16T17:15:20.814Z,9.04
2019-05-16T17:18:20.746Z,9.12
2019-05-16T17:21:20.737Z,9.24
2019-05-16T17:24:20.718Z,9.34
2019-05-16T17:27:20.687Z,9.35
2019-05-16T17:30:20.626Z,9.28
2019-05-16T17:33:20.598Z,9.31
2019-05-16T17:36:20.562Z,9.39
2019-05-16T17:39:20.541Z,9.24
2019-05-16T17:42:20.492Z,9.21
2019-05-16T17:45:20.475Z,9.21
2019-05-16T17:48:20.446Z,9.24
2019-05-16T17:51:20.396Z,9.16
2019-05-16T17:54:20.375Z,9.39
2019-05-16T17:57:20.338Z,9.38
2019-05-16T18:00:25.022Z,9.23
2019-05-16T18:03:21.265Z,9.21
2019-05-16T18:06:20.251Z,9.23
2019-05-16T18:09:20.212Z,9.28
2019-05-16T18:12:20.193Z,9.21
2019-05-16T18:15:20.148Z,9.25
2019-05-16T18:18:20.108Z,9.15
2019-05-16T18:21:20.098Z,9.13
2019-05-16T18:24:20.043Z,9.20
2019-05-16T18:27:20.037Z,9.13
2019-05-16T18:30:19.978Z,8.99
2019-05-16T18:33:19.980Z,9.09
2019-05-16T18:36:19.921Z,8.91
2019-05-16T18:39:19.915Z,8.84
2019-05-16T18:42:19.880Z,8.87
2019-05-16T18:45:19.816Z,8.97
2019-05-16T18:48:19.820Z,9.10
2019-05-16T18:51:19.754Z,9.15
2019-05-16T18:54:19.748Z,8.96
2019-05-16T18:57:19.687Z,8.97
2019-05-16T19:00:19.684Z,9.04
2019-05-16T19:03:19.625Z,9.04
2019-05-16T19:06:19.624Z,8.97
2019-05-16T19:09:19.582Z,8.99
2019-05-16T19:12:19.531Z,9.02
2019-05-16T19:15:19.510Z,8.91
2019-05-16T19:18:19.463Z,9.02
2019-05-16T19:21:19.449Z,8.86
2019-05-16T19:24:19.422Z,8.97
2019-05-16T19:27:19.364Z,8.88
2019-05-16T19:30:19.364Z,8.83
2019-05-16T19:33:19.324Z,8.83
2019-05-16T19:36:19.292Z,8.83
2019-05-16T19:39:19.240Z,8.90
2019-05-16T19:42:19.226Z,8.87
2019-05-16T19:45:19.182Z,8.83
2019-05-16T19:48:19.160Z,8.93
2019-05-16T19:51:19.139Z,8.88
2019-05-16T19:54:19.082Z,8.84
2019-05-16T19:57:19.077Z,8.84
2019-05-16T20:00:19.051Z,8.94
2019-05-16T20:03:19.012Z,8.81
2019-05-16T20:06:18.964Z,8.81
2019-05-16T20:09:18.937Z,8.90
2019-05-16T20:12:18.898Z,8.79
2019-05-16T20:15:18.887Z,8.83
2019-05-16T20:18:18.847Z,8.78
2019-05-16T20:21:18.823Z,8.84
2019-05-16T20:24:18.764Z,8.88
2019-05-16T20:27:19.477Z,8.91
2019-05-16T20:30:18.730Z,8.86
2019-05-16T20:33:18.671Z,8.84
2019-05-16T20:36:18.667Z,8.90
2019-05-16T20:39:18.627Z,8.84
2019-05-16T20:42:18.585Z,8.83
2019-05-16T20:45:18.550Z,8.87
2019-05-16T20:48:18.833Z,8.81
2019-05-16T20:51:20.274Z,8.81
2019-05-16T20:54:18.448Z,8.90
2019-05-16T20:57:18.437Z,8.84
2019-05-16T21:00:18.391Z,8.79
2019-05-16T21:03:18.396Z,8.83
2019-05-16T21:06:18.322Z,8.79
2019-05-16T21:09:18.305Z,8.75
2019-05-16T21:12:18.279Z,8.72
2019-05-16T21:15:18.225Z,8.72
2019-05-16T21:18:18.205Z,8.66
2019-05-16T21:21:19.388Z,8.73
2019-05-16T21:24:18.140Z,8.66
2019-05-16T21:27:19.119Z,8.68
2019-05-16T21:30:19.176Z,8.75
2019-05-16T21:33:18.664Z,8.66
2019-05-16T21:36:19.095Z,8.62
2019-05-16T21:39:17.982Z,8.69
2019-05-16T21:42:17.939Z,8.66
2019-05-16T21:45:28.271Z,8.65
2019-05-16T21:48:19.407Z,8.63
2019-05-16T21:51:19.642Z,8.66
2019-05-16T21:54:17.831Z,8.63
2019-05-16T21:57:19.854Z,8.62
2019-05-16T22:00:17.780Z,8.66
2019-05-16T22:03:17.737Z,8.63
2019-05-16T22:06:17.717Z,8.68
2019-05-16T22:09:17.693Z,8.73
2019-05-16T22:12:17.631Z,8.68
2019-05-16T22:15:17.609Z,8.72
2019-05-16T22:18:17.594Z,8.76
2019-05-16T22:21:17.558Z,8.84
2019-05-16T22:24:17.496Z,8.62
2019-05-16T22:27:17.485Z,8.76
2019-05-16T22:30:17.471Z,8.68
2019-05-16T22:33:17.873Z,8.71
2019-05-16T22:36:17.484Z,8.78
2019-05-16T22:39:17.456Z,8.72
2019-05-16T22:42:17.767Z,8.72
2019-05-16T22:45:17.697Z,8.66
2019-05-16T22:48:17.509Z,8.66
2019-05-16T22:51:17.213Z,8.69
2019-05-16T22:54:17.341Z,8.72
2019-05-16T22:57:17.749Z,8.69
2019-05-16T23:00:17.142Z,8.72
2019-05-16T23:03:17.507Z,8.66
2019-05-16T23:06:17.091Z,8.72
2019-05-16T23:09:17.075Z,8.68
2019-05-16T23:12:17.468Z,8.63
2019-05-16T23:15:17.223Z,8.69
2019-05-16T23:18:17.296Z,8.68
2019-05-16T23:21:17.132Z,8.73
2019-05-16T23:24:17.347Z,8.69
2019-05-16T23:27:16.868Z,8.73
2019-05-16T23:30:16.838Z,8.76
2019-05-16T23:33:16.782Z,8.72
2019-05-16T23:36:17.483Z,8.69
2019-05-16T23:39:16.731Z,8.66
2019-05-16T23:42:16.676Z,8.66
2019-05-16T23:45:17.288Z,8.69
2019-05-16T23:48:16.636Z,8.65
2019-05-16T23:51:17.011Z,8.71
2019-05-16T23:54:17.230Z,8.65
2019-05-16T23:57:16.515Z,8.68
